createdAt,value
2022-08-07T00:00:39.780Z,13.21
2022-08-07T00:03:09.304Z,13.16
2022-08-07T00:05:37.653Z,13.15
2022-08-07T00:08:07.648Z,13.15
2022-08-07T00:10:48.342Z,13.17
2022-08-07T00:13:26.646Z,13.10
2022-08-07T00:15:55.163Z,13.13
2022-08-07T00:18:25.130Z,13.17
2022-08-07T00:20:57.563Z,13.17
2022-08-07T00:23:30.188Z,13.13
2022-08-07T00:26:13.149Z,13.11
2022-08-07T00:28:55.646Z,13.09
2022-08-07T00:31:37.428Z,13.01
2022-08-07T00:34:08.560Z,13.01
2022-08-07T00:36:38.533Z,12.98
2022-08-07T00:39:12.802Z,12.96
2022-08-07T00:41:53.197Z,12.94
2022-08-07T00:44:22.042Z,12.93
2022-08-07T00:46:55.438Z,12.86
2022-08-07T00:49:24.623Z,12.80
2022-08-07T00:52:11.999Z,12.80
2022-08-07T00:54:40.635Z,12.78
2022-08-07T00:57:10.708Z,12.74
2022-08-07T00:59:40.244Z,12.73
2022-08-07T01:02:28.771Z,12.72
2022-08-07T01:04:58.741Z,12.64
2022-08-07T01:07:29.831Z,12.60
2022-08-07T01:10:04.862Z,12.58
2022-08-07T01:12:53.307Z,12.55
2022-08-07T01:16:00.627Z,12.53
2022-08-07T01:18:17.500Z,12.50
2022-08-07T01:20:59.472Z,12.46
2022-08-07T01:23:35.436Z,12.44
2022-08-07T01:26:11.953Z,12.45
2022-08-07T01:28:40.743Z,12.43
2022-08-07T01:31:15.420Z,12.44
2022-08-07T01:33:55.191Z,12.49
2022-08-07T01:36:33.541Z,12.50
2022-08-07T01:39:10.296Z,12.51
2022-08-07T01:41:39.051Z,12.56
2022-08-07T01:44:09.231Z,12.56
2022-08-07T01:46:40.103Z,12.59
2022-08-07T01:49:08.258Z,12.59
2022-08-07T01:52:03.522Z,12.61
2022-08-07T01:54:36.832Z,12.57
2022-08-07T01:57:09.020Z,12.54
2022-08-07T01:59:56.083Z,12.44
2022-08-07T02:02:32.546Z,12.39
2022-08-07T02:05:42.972Z,12.38
2022-08-07T02:08:14.548Z,12.38
2022-08-07T02:10:54.891Z,12.39
2022-08-07T02:13:47.104Z,12.34
2022-08-07T02:16:16.017Z,12.29
2022-08-07T02:18:47.404Z,12.25
2022-08-07T02:21:18.359Z,12.24
2022-08-07T02:23:47.853Z,12.21
2022-08-07T02:26:32.522Z,12.19
2022-08-07T02:29:04.236Z,12.18
2022-08-07T02:31:33.195Z,12.15
2022-08-07T02:34:03.612Z,12.13
2022-08-07T02:36:41.250Z,12.09
2022-08-07T02:39:17.005Z,12.06
2022-08-07T02:42:03.787Z,12.05
2022-08-07T02:44:45.785Z,12.08
2022-08-07T02:47:19.312Z,12.03
2022-08-07T02:49:58.492Z,12.03
2022-08-07T02:52:33.433Z,12.02
2022-08-07T02:55:27.409Z,12.03
2022-08-07T02:57:59.126Z,12.02
2022-08-07T03:00:30.511Z,12.01
2022-08-07T03:02:59.599Z,11.96
2022-08-07T03:05:37.807Z,11.92
2022-08-07T03:08:10.368Z,11.88
2022-08-07T03:10:41.010Z,11.90
2022-08-07T03:13:20.239Z,11.87
2022-08-07T03:15:58.421Z,11.86
2022-08-07T03:18:35.027Z,11.85
2022-08-07T03:21:08.171Z,11.84
2022-08-07T03:24:18.462Z,11.84
2022-08-07T03:26:31.060Z,11.79
2022-08-07T03:29:03.132Z,11.67
2022-08-07T03:31:42.688Z,11.57
2022-08-07T03:34:18.702Z,11.58
2022-08-07T03:36:53.355Z,11.59
2022-08-07T03:40:00.045Z,11.62
2022-08-07T03:42:13.155Z,11.67
2022-08-07T03:44:47.293Z,11.69
2022-08-07T03:47:22.788Z,11.74
2022-08-07T03:49:53.974Z,11.79
2022-08-07T03:52:26.533Z,11.90
2022-08-07T03:54:57.142Z,12.02
2022-08-07T03:58:33.992Z,12.11
2022-08-07T04:00:20.927Z,12.23
2022-08-07T04:02:49.537Z,12.43
2022-08-07T04:05:20.498Z,12.81
2022-08-07T04:07:57.411Z,12.63
2022-08-07T04:10:25.681Z,12.37
2022-08-07T04:12:57.750Z,12.34
2022-08-07T04:15:28.434Z,12.36
2022-08-07T04:18:31.056Z,12.39
2022-08-07T04:20:54.992Z,12.45
2022-08-07T04:23:25.456Z,12.51
2022-08-07T04:26:12.071Z,12.54
2022-08-07T04:28:45.400Z,12.56
2022-08-07T04:31:19.800Z,12.54
2022-08-07T04:33:55.072Z,12.51
2022-08-07T04:36:26.173Z,12.58
2022-08-07T04:38:54.609Z,12.72
2022-08-07T04:41:22.811Z,12.83
2022-08-07T04:44:12.820Z,12.92
2022-08-07T04:46:59.567Z,13.03
2022-08-07T04:49:47.388Z,13.11
2022-08-07T04:52:37.348Z,13.18
2022-08-07T04:58:23.668Z,13.24
2022-08-07T04:58:38.884Z,13.31
2022-08-07T05:01:18.315Z,13.33
2022-08-07T05:04:07.886Z,13.37
2022-08-07T05:06:51.743Z,13.43
2022-08-07T05:09:45.589Z,13.48
2022-08-07T05:12:27.280Z,13.53
2022-08-07T05:15:04.087Z,13.57
2022-08-07T05:17:51.805Z,13.67
2022-08-07T05:20:27.270Z,13.78
2022-08-07T05:22:59.587Z,13.86
2022-08-07T05:26:08.869Z,13.94
2022-08-07T05:28:22.971Z,13.98
2022-08-07T05:30:57.797Z,14.06
2022-08-07T05:33:29.767Z,14.13
2022-08-07T05:36:00.343Z,14.22
2022-08-07T05:39:00.580Z,14.22
2022-08-07T05:41:18.420Z,14.31
2022-08-07T05:44:08.192Z,14.39
2022-08-07T05:46:41.577Z,14.62
2022-08-07T05:49:14.224Z,14.69
2022-08-07T05:51:46.603Z,14.68
2022-08-07T05:54:31.113Z,14.75
2022-08-07T05:57:08.129Z,14.75
2022-08-07T05:59:55.842Z,14.85
2022-08-07T06:02:30.722Z,15.00
2022-08-07T06:05:03.531Z,15.10
2022-08-07T06:08:14.237Z,15.08
2022-08-07T06:10:23.517Z,14.99
2022-08-07T06:12:51.917Z,14.90
2022-08-07T06:15:21.025Z,14.85
2022-08-07T06:17:53.398Z,14.82
2022-08-07T06:20:25.514Z,14.93
2022-08-07T06:23:46.420Z,15.24
2022-08-07T06:25:58.668Z,15.46
2022-08-07T06:28:28.421Z,15.40
2022-08-07T06:30:58.366Z,15.53
2022-08-07T06:33:29.704Z,15.49
2022-08-07T06:36:12.246Z,15.53
2022-08-07T06:38:51.232Z,15.40
2022-08-07T06:42:00.455Z,15.53
2022-08-07T06:44:21.785Z,15.52
2022-08-07T06:46:53.829Z,15.77
2022-08-07T06:49:52.245Z,15.78
2022-08-07T06:52:31.986Z,15.82
2022-08-07T06:55:31.625Z,15.89
2022-08-07T06:58:00.391Z,15.91
2022-08-07T07:00:31.384Z,15.92
2022-08-07T07:03:01.125Z,15.86
2022-08-07T07:06:04.807Z,15.83
2022-08-07T07:08:27.281Z,15.77
2022-08-07T07:10:58.868Z,15.81
2022-08-07T07:13:56.498Z,15.86
2022-08-07T07:16:30.123Z,15.85
2022-08-07T07:19:11.512Z,16.01
2022-08-07T07:22:11.882Z,16.23
2022-08-07T07:24:58.429Z,16.43
2022-08-07T07:27:58.398Z,16.56
2022-08-07T07:30:38.031Z,16.72
2022-08-07T07:33:09.021Z,16.81
2022-08-07T07:35:54.752Z,16.89
2022-08-07T07:38:35.883Z,17.04
2022-08-07T07:41:09.177Z,17.15
2022-08-07T07:44:13.886Z,17.12
2022-08-07T07:46:38.577Z,17.20
2022-08-07T07:50:34.945Z,17.27
2022-08-07T07:52:12.985Z,17.40
2022-08-07T07:54:50.724Z,17.35
2022-08-07T07:57:52.402Z,17.45
2022-08-07T08:00:15.047Z,17.50
2022-08-07T08:03:01.223Z,17.68
2022-08-07T08:05:42.982Z,17.79
2022-08-07T08:08:34.482Z,17.83
2022-08-07T08:11:08.596Z,17.93
2022-08-07T08:13:52.732Z,17.94
2022-08-07T08:16:29.991Z,17.85
2022-08-07T08:19:18.099Z,17.78
2022-08-07T08:22:10.549Z,17.71
2022-08-07T08:25:09.356Z,17.63
2022-08-07T08:27:56.508Z,17.50
2022-08-07T08:30:29.373Z,17.44
2022-08-07T08:33:02.045Z,17.50
2022-08-07T08:35:39.056Z,17.58
2022-08-07T08:38:14.287Z,17.81
2022-08-07T08:40:50.248Z,17.91
2022-08-07T08:43:28.496Z,17.95
2022-08-07T08:46:17.491Z,17.96
2022-08-07T08:48:59.473Z,18.04
2022-08-07T08:52:12.487Z,18.07
2022-08-07T08:54:25.638Z,18.00
2022-08-07T08:56:55.872Z,17.99
2022-08-07T08:59:30.263Z,18.07
2022-08-07T09:02:35.127Z,18.04
2022-08-07T09:05:26.427Z,18.05
2022-08-07T09:08:12.539Z,18.05
2022-08-07T09:11:03.863Z,18.12
2022-08-07T09:13:40.517Z,18.12
2022-08-07T09:16:23.337Z,18.10
2022-08-07T09:19:52.095Z,18.06
2022-08-07T09:24:29.046Z,18.14
2022-08-07T09:25:14.652Z,18.25
2022-08-07T09:28:01.306Z,18.22
2022-08-07T09:30:38.611Z,18.15
2022-08-07T09:33:40.687Z,18.09
2022-08-07T09:36:15.679Z,18.05
2022-08-07T09:38:54.088Z,18.11
2022-08-07T09:41:36.383Z,18.21
2022-08-07T09:44:32.710Z,18.23
2022-08-07T09:47:49.519Z,18.29
2022-08-07T09:50:18.501Z,18.31
2022-08-07T09:52:52.410Z,18.50
2022-08-07T09:56:03.106Z,18.60
2022-08-07T09:58:42.156Z,18.86
2022-08-07T10:01:51.671Z,19.01
2022-08-07T10:04:32.434Z,19.20
2022-08-07T10:07:25.708Z,19.27
2022-08-07T10:10:21.470Z,19.39
2022-08-07T10:13:29.888Z,19.41
2022-08-07T10:16:21.812Z,19.36
2022-08-07T10:19:18.870Z,19.27
2022-08-07T10:22:14.605Z,19.14
2022-08-07T10:24:57.407Z,19.08
2022-08-07T10:27:45.961Z,19.16
2022-08-07T10:30:19.609Z,19.11
2022-08-07T10:33:17.670Z,19.01
2022-08-07T10:35:56.877Z,18.98
2022-08-07T10:38:48.023Z,19.00
2022-08-07T10:41:51.260Z,19.22
2022-08-07T10:44:37.446Z,19.33
2022-08-07T10:47:27.010Z,19.31
2022-08-07T10:50:15.256Z,19.34
2022-08-07T10:52:54.262Z,19.43
2022-08-07T10:55:37.681Z,19.42
2022-08-07T10:58:32.000Z,19.38
2022-08-07T11:01:35.790Z,19.40
2022-08-07T11:04:34.447Z,19.42
2022-08-07T11:07:15.023Z,19.49
2022-08-07T11:10:09.537Z,19.58
2022-08-07T11:12:49.020Z,19.69
2022-08-07T11:15:26.390Z,19.74
2022-08-07T11:18:09.620Z,19.74
2022-08-07T11:20:44.518Z,19.58
2022-08-07T11:23:30.576Z,19.63
2022-08-07T11:26:13.358Z,19.64
2022-08-07T11:28:53.501Z,19.64
2022-08-07T11:31:35.291Z,19.61
2022-08-07T11:34:16.519Z,19.57
2022-08-07T11:36:57.826Z,19.57
2022-08-07T11:40:00.450Z,19.59
2022-08-07T11:42:40.971Z,19.54
2022-08-07T11:45:20.477Z,19.44
2022-08-07T11:48:18.336Z,19.38
2022-08-07T11:51:10.243Z,19.42
2022-08-07T11:54:17.628Z,19.57
2022-08-07T11:57:04.426Z,19.71
2022-08-07T12:00:10.171Z,19.71
2022-08-07T12:02:53.699Z,19.60
2022-08-07T12:05:47.490Z,19.51
2022-08-07T12:08:25.745Z,19.45
2022-08-07T12:11:20.402Z,19.42
2022-08-07T12:13:55.139Z,19.41
2022-08-07T12:16:30.093Z,19.46
2022-08-07T12:19:07.644Z,19.52
2022-08-07T12:22:35.657Z,19.58
2022-08-07T12:24:40.305Z,19.72
2022-08-07T12:27:16.340Z,19.84
2022-08-07T12:29:51.743Z,19.93
2022-08-07T12:32:28.982Z,20.02
2022-08-07T12:35:01.146Z,20.12
2022-08-07T12:38:09.542Z,20.15
2022-08-07T12:40:47.109Z,20.07
2022-08-07T12:44:02.378Z,20.05
2022-08-07T12:46:26.488Z,20.18
2022-08-07T12:49:25.859Z,20.40
2022-08-07T12:52:13.850Z,20.52
2022-08-07T12:54:54.606Z,20.57
2022-08-07T12:57:39.248Z,20.50
2022-08-07T13:00:30.929Z,20.53
2022-08-07T13:03:26.816Z,20.62
2022-08-07T13:06:21.475Z,20.81
2022-08-07T13:09:00.832Z,20.81
2022-08-07T13:12:03.322Z,20.87
2022-08-07T13:15:00.666Z,20.91
2022-08-07T13:17:41.189Z,20.84
2022-08-07T13:20:17.212Z,20.80
2022-08-07T13:22:53.190Z,20.92
2022-08-07T13:25:30.809Z,20.89
2022-08-07T13:28:10.768Z,20.85
2022-08-07T13:30:53.315Z,20.68
2022-08-07T13:34:34.292Z,20.48
2022-08-07T13:36:44.470Z,19.96
2022-08-07T13:39:28.513Z,19.63
2022-08-07T13:42:21.508Z,19.37
2022-08-07T13:45:11.798Z,18.93
2022-08-07T13:48:08.229Z,18.59
2022-08-07T13:50:45.023Z,18.30
2022-08-07T13:53:25.135Z,18.20
2022-08-07T13:56:05.439Z,18.16
2022-08-07T13:58:57.062Z,18.23
2022-08-07T14:01:27.444Z,18.37
2022-08-07T14:04:08.625Z,18.50
2022-08-07T14:06:41.490Z,18.55
2022-08-07T14:10:02.783Z,18.65
2022-08-07T14:12:10.560Z,18.72
2022-08-07T14:14:44.739Z,18.79
2022-08-07T14:18:12.530Z,18.94
2022-08-07T14:20:43.639Z,19.02
2022-08-07T14:23:08.664Z,19.10
2022-08-07T14:25:48.047Z,19.14
2022-08-07T14:28:19.322Z,19.28
2022-08-07T14:30:52.150Z,19.30
2022-08-07T14:33:23.442Z,19.33
2022-08-07T14:35:56.711Z,19.36
2022-08-07T14:38:33.382Z,19.43
2022-08-07T14:41:04.137Z,19.48
2022-08-07T14:46:31.218Z,19.39
2022-08-07T14:54:43.355Z,19.47
2022-08-07T14:57:18.716Z,19.49
2022-08-07T15:00:04.588Z,19.44
2022-08-07T15:02:37.282Z,19.33
2022-08-07T15:05:20.269Z,19.34
2022-08-07T15:07:52.932Z,19.38
2022-08-07T15:10:26.267Z,19.44
2022-08-07T15:12:59.197Z,19.52
2022-08-07T15:18:35.941Z,19.48
2022-08-07T15:26:52.743Z,19.60
2022-08-07T15:30:09.384Z,19.61
2022-08-07T15:32:12.691Z,19.60
2022-08-07T15:34:50.626Z,19.62
2022-08-07T15:37:29.200Z,19.61
2022-08-07T15:40:34.585Z,19.59
2022-08-07T15:46:37.599Z,19.55
2022-08-07T15:49:15.097Z,19.61
2022-08-07T15:54:34.653Z,19.66
2022-08-07T15:57:40.338Z,19.67
2022-08-07T16:00:06.407Z,19.66
2022-08-07T16:02:41.663Z,19.62
2022-08-07T16:05:18.101Z,19.60
2022-08-07T16:08:32.056Z,19.62
2022-08-07T16:10:42.939Z,19.64
2022-08-07T16:13:59.620Z,19.58
2022-08-07T16:17:15.211Z,19.44
2022-08-07T16:20:07.264Z,19.41
2022-08-07T16:22:57.490Z,19.42
2022-08-07T16:25:55.273Z,19.42
2022-08-07T16:29:18.753Z,19.38
2022-08-07T16:31:51.165Z,19.36
2022-08-07T16:34:38.286Z,19.39
2022-08-07T16:38:03.933Z,19.40
2022-08-07T16:41:01.835Z,19.47
2022-08-07T16:44:05.759Z,19.43
2022-08-07T16:47:16.608Z,19.36
2022-08-07T16:50:35.925Z,19.25
2022-08-07T16:54:03.164Z,19.13
2022-08-07T16:56:19.111Z,18.96
2022-08-07T16:59:10.264Z,18.83
2022-08-07T17:01:49.409Z,18.74
2022-08-07T17:04:32.149Z,18.67
2022-08-07T17:07:10.927Z,18.61
2022-08-07T17:10:06.314Z,18.58
2022-08-07T17:12:44.430Z,18.51
2022-08-07T17:15:22.115Z,18.44
2022-08-07T17:18:18.433Z,18.36
2022-08-07T17:20:47.200Z,18.29
2022-08-07T17:23:41.754Z,18.27
2022-08-07T17:26:22.517Z,18.25
2022-08-07T17:29:08.419Z,18.24
2022-08-07T17:32:02.892Z,18.24
2022-08-07T17:34:57.209Z,18.25
2022-08-07T17:38:05.462Z,18.24
2022-08-07T17:40:30.659Z,18.21
2022-08-07T17:43:18.084Z,18.18
2022-08-07T17:45:55.635Z,18.14
2022-08-07T17:48:31.142Z,18.10
2022-08-07T17:51:07.183Z,18.06
2022-08-07T17:54:02.309Z,18.00
2022-08-07T17:56:49.506Z,17.93
2022-08-07T17:59:25.068Z,17.86
2022-08-07T18:02:02.486Z,17.81
2022-08-07T18:04:35.415Z,17.76
2022-08-07T18:07:20.219Z,17.70
2022-08-07T18:10:06.762Z,17.65
2022-08-07T18:13:09.973Z,17.59
2022-08-07T18:15:53.606Z,17.57
2022-08-07T18:19:02.608Z,17.56
2022-08-07T18:21:42.400Z,17.52
2022-08-07T18:24:33.376Z,17.50
2022-08-07T18:27:38.156Z,17.47
2022-08-07T18:30:32.371Z,17.47
2022-08-07T18:33:37.647Z,17.46
2022-08-07T18:36:17.819Z,17.45
2022-08-07T18:40:09.059Z,17.45
2022-08-07T18:42:13.099Z,17.45
2022-08-07T18:45:44.033Z,17.41
2022-08-07T18:48:01.031Z,17.38
2022-08-07T18:50:49.487Z,17.35
2022-08-07T18:53:39.373Z,17.30
2022-08-07T18:56:15.951Z,17.25
2022-08-07T18:59:00.635Z,17.27
2022-08-07T19:02:33.160Z,17.32
2022-08-07T19:04:54.597Z,17.34
2022-08-07T19:07:34.838Z,17.33
2022-08-07T19:10:10.953Z,17.29
2022-08-07T19:12:54.696Z,17.25
2022-08-07T19:16:03.792Z,17.25
2022-08-07T19:18:34.100Z,17.20
2022-08-07T19:21:42.757Z,17.15
2022-08-07T19:24:02.465Z,17.15
2022-08-07T19:27:08.938Z,17.15
2022-08-07T19:31:00.404Z,17.13
2022-08-07T19:32:25.868Z,17.10
2022-08-07T19:35:00.772Z,17.09
2022-08-07T19:37:55.555Z,17.09
2022-08-07T19:40:31.022Z,16.97
2022-08-07T19:43:02.852Z,17.01
2022-08-07T19:46:09.872Z,16.96
2022-08-07T19:48:31.584Z,16.95
2022-08-07T19:51:19.486Z,16.91
2022-08-07T19:54:44.604Z,16.87
2022-08-07T19:58:00.784Z,16.84
2022-08-07T19:59:40.754Z,16.80
2022-08-07T20:02:19.795Z,16.79
2022-08-07T20:04:51.999Z,16.72
2022-08-07T20:07:45.831Z,16.70
2022-08-07T20:10:35.178Z,16.66
2022-08-07T20:13:22.456Z,16.65
2022-08-07T20:15:53.959Z,16.66
2022-08-07T20:18:32.394Z,16.65
2022-08-07T20:21:03.338Z,16.65
2022-08-07T20:23:52.012Z,16.61
2022-08-07T20:26:32.121Z,16.53
2022-08-07T20:29:10.253Z,16.47
2022-08-07T20:31:46.399Z,16.44
2022-08-07T20:34:29.598Z,16.41
2022-08-07T20:37:10.219Z,16.40
2022-08-07T20:40:03.095Z,16.36
2022-08-07T20:42:31.239Z,16.22
2022-08-07T20:45:04.540Z,16.23
2022-08-07T20:47:58.345Z,16.18
2022-08-07T20:50:30.354Z,16.11
2022-08-07T20:52:59.494Z,16.09
2022-08-07T20:55:28.789Z,16.05
2022-08-07T20:58:03.975Z,15.99
2022-08-07T21:00:43.408Z,15.99
2022-08-07T21:03:15.318Z,15.95
2022-08-07T21:05:55.698Z,15.94
2022-08-07T21:08:36.442Z,15.92
2022-08-07T21:11:10.978Z,15.88
2022-08-07T21:14:16.461Z,15.88
2022-08-07T21:16:56.576Z,15.88
2022-08-07T21:19:32.088Z,15.91
2022-08-07T21:22:19.326Z,15.91
2022-08-07T21:24:51.661Z,15.86
2022-08-07T21:27:27.865Z,15.93
2022-08-07T21:30:15.437Z,15.93
2022-08-07T21:32:52.966Z,15.92
2022-08-07T21:36:06.161Z,15.92
2022-08-07T21:38:27.937Z,15.91
2022-08-07T21:41:06.930Z,15.91
2022-08-07T21:43:55.482Z,15.92
2022-08-07T21:46:33.157Z,15.90
2022-08-07T21:49:14.662Z,15.89
2022-08-07T21:51:55.908Z,15.89
2022-08-07T21:54:30.987Z,15.89
2022-08-07T21:57:39.676Z,15.89
2022-08-07T22:00:23.198Z,15.89
2022-08-07T22:03:03.611Z,15.87
2022-08-07T22:05:46.605Z,15.86
2022-08-07T22:08:21.422Z,15.85
2022-08-07T22:10:55.175Z,15.83
2022-08-07T22:13:50.437Z,15.81
2022-08-07T22:16:38.901Z,15.78
2022-08-07T22:19:09.406Z,15.74
2022-08-07T22:22:04.864Z,15.72
2022-08-07T22:24:36.338Z,15.70
2022-08-07T22:27:13.655Z,15.63
2022-08-07T22:29:50.330Z,15.59
2022-08-07T22:32:33.300Z,15.58
2022-08-07T22:35:04.760Z,15.53
2022-08-07T22:38:02.906Z,15.50
2022-08-07T22:40:40.955Z,15.47
2022-08-07T22:43:11.432Z,15.45
2022-08-07T22:46:21.127Z,15.42
2022-08-07T22:49:10.990Z,15.40
2022-08-07T22:52:14.076Z,15.38
2022-08-07T22:55:34.347Z,15.35
2022-08-07T22:58:39.612Z,15.31
2022-08-07T23:01:30.523Z,15.31
2022-08-07T23:04:32.122Z,15.30
2022-08-07T23:07:28.398Z,15.24
2022-08-07T23:10:37.678Z,15.19
2022-08-07T23:13:29.344Z,15.17
2022-08-07T23:16:10.954Z,15.11
2022-08-07T23:19:17.279Z,15.08
2022-08-07T23:22:17.036Z,15.05
2022-08-07T23:24:58.934Z,15.03
2022-08-07T23:28:21.611Z,14.97
2022-08-07T23:31:05.729Z,14.86
2022-08-07T23:34:33.551Z,14.87
2022-08-07T23:36:54.666Z,14.89
2022-08-07T23:39:55.556Z,14.86
2022-08-07T23:42:31.317Z,14.82
2022-08-07T23:46:01.841Z,14.81
2022-08-07T23:48:25.198Z,14.77
2022-08-07T23:50:58.096Z,14.75
2022-08-07T23:53:51.515Z,14.71
2022-08-07T23:56:27.933Z,14.68
2022-08-07T23:59:10.166Z,14.66
